sensor_id;sensor_type;location;lat;lon;timestamp;temperature;humidity
53653;DHT22;39553;52.954;5.932;2023-04-27T00:01:36;2.10;99.90
53653;DHT22;39553;52.954;5.932;2023-04-27T00:04:03;2.10;99.90
53653;DHT22;39553;52.954;5.932;2023-04-27T00:06:29;2.00;99.90
53653;DHT22;39553;52.954;5.932;2023-04-27T00:08:55;2.00;99.90
53653;DHT22;39553;52.954;5.932;2023-04-27T00:11:21;2.00;99.90
53653;DHT22;39553;52.954;5.932;2023-04-27T00:13:47;1.90;99.90
53653;DHT22;39553;52.954;5.932;2023-04-27T00:16:13;1.90;99.90
53653;DHT22;39553;52.954;5.932;2023-04-27T00:18:38;1.80;99.90
53653;DHT22;39553;52.954;5.932;2023-04-27T00:21:05;1.80;99.90
53653;DHT22;39553;52.954;5.932;2023-04-27T00:23:30;1.70;99.90
53653;DHT22;39553;52.954;5.932;2023-04-27T00:25:57;1.70;99.90
53653;DHT22;39553;52.954;5.932;2023-04-27T00:28:25;1.70;99.90
53653;DHT22;39553;52.954;5.932;2023-04-27T00:30:51;2.20;99.90
53653;DHT22;39553;52.954;5.932;2023-04-27T00:33:19;1.80;99.90
53653;DHT22;39553;52.954;5.932;2023-04-27T00:35:45;1.80;99.90
53653;DHT22;39553;52.954;5.932;2023-04-27T00:38:11;1.80;99.90
53653;DHT22;39553;52.954;5.932;2023-04-27T00:40:38;1.80;99.90
53653;DHT22;39553;52.954;5.932;2023-04-27T00:43:04;1.80;99.90
53653;DHT22;39553;52.954;5.932;2023-04-27T00:45:29;1.70;99.90
53653;DHT22;39553;52.954;5.932;2023-04-27T00:47:55;1.70;99.90
53653;DHT22;39553;52.954;5.932;2023-04-27T00:50:27;1.60;99.90
53653;DHT22;39553;52.954;5.932;2023-04-27T00:52:56;1.60;99.90
53653;DHT22;39553;52.954;5.932;2023-04-27T00:55:22;1.50;99.90
53653;DHT22;39553;52.954;5.932;2023-04-27T00:57:48;1.40;99.90
53653;DHT22;39553;52.954;5.932;2023-04-27T01:00:14;1.50;99.90
53653;DHT22;39553;52.954;5.932;2023-04-27T01:02:40;1.50;99.90
53653;DHT22;39553;52.954;5.932;2023-04-27T01:05:07;1.50;99.90
53653;DHT22;39553;52.954;5.932;2023-04-27T01:07:37;1.50;99.90
53653;DHT22;39553;52.954;5.932;2023-04-27T01:10:05;1.50;99.90
53653;DHT22;39553;52.954;5.932;2023-04-27T01:12:32;1.40;99.90
53653;DHT22;39553;52.954;5.932;2023-04-27T01:14:58;1.40;99.90
53653;DHT22;39553;52.954;5.932;2023-04-27T01:17:24;2.10;99.90
53653;DHT22;39553;52.954;5.932;2023-04-27T01:19:50;1.30;99.90
53653;DHT22;39553;52.954;5.932;2023-04-27T01:22:20;1.30;99.90
53653;DHT22;39553;52.954;5.932;2023-04-27T01:24:46;2.00;99.90
53653;DHT22;39553;52.954;5.932;2023-04-27T01:27:12;1.20;99.90
53653;DHT22;39553;52.954;5.932;2023-04-27T01:29:38;1.00;99.90
53653;DHT22;39553;52.954;5.932;2023-04-27T01:32:04;1.20;99.90
53653;DHT22;39553;52.954;5.932;2023-04-27T01:34:31;1.10;99.90
53653;DHT22;39553;52.954;5.932;2023-04-27T01:36:57;1.10;99.90
53653;DHT22;39553;52.954;5.932;2023-04-27T01:39:22;1.40;99.90
53653;DHT22;39553;52.954;5.932;2023-04-27T01:41:48;1.10;99.90
53653;DHT22;39553;52.954;5.932;2023-04-27T01:44:14;1.00;99.90
53653;DHT22;39553;52.954;5.932;2023-04-27T01:46:40;1.00;99.90
53653;DHT22;39553;52.954;5.932;2023-04-27T01:49:06;1.10;99.90
53653;DHT22;39553;52.954;5.932;2023-04-27T01:51:32;1.00;99.90
53653;DHT22;39553;52.954;5.932;2023-04-27T01:53:58;1.00;99.90
53653;DHT22;39553;52.954;5.932;2023-04-27T01:56:23;1.00;99.90
53653;DHT22;39553;52.954;5.932;2023-04-27T01:58:52;1.00;99.90
53653;DHT22;39553;52.954;5.932;2023-04-27T02:01:17;1.00;99.90
53653;DHT22;39553;52.954;5.932;2023-04-27T02:03:43;1.40;99.90
53653;DHT22;39553;52.954;5.932;2023-04-27T02:06:09;1.00;99.90
53653;DHT22;39553;52.954;5.932;2023-04-27T02:08:35;1.00;99.90
53653;DHT22;39553;52.954;5.932;2023-04-27T02:11:00;0.90;99.90
53653;DHT22;39553;52.954;5.932;2023-04-27T02:13:26;1.10;99.90
53653;DHT22;39553;52.954;5.932;2023-04-27T02:15:52;1.00;99.90
53653;DHT22;39553;52.954;5.932;2023-04-27T02:18:18;1.00;99.90
53653;DHT22;39553;52.954;5.932;2023-04-27T02:20:44;1.10;99.90
53653;DHT22;39553;52.954;5.932;2023-04-27T02:23:10;1.20;99.90
53653;DHT22;39553;52.954;5.932;2023-04-27T02:25:36;1.20;99.90
53653;DHT22;39553;52.954;5.932;2023-04-27T02:28:02;1.30;99.90
53653;DHT22;39553;52.954;5.932;2023-04-27T02:30:28;1.30;99.90
53653;DHT22;39553;52.954;5.932;2023-04-27T02:32:56;1.30;99.90
53653;DHT22;39553;52.954;5.932;2023-04-27T02:35:22;1.40;99.90
53653;DHT22;39553;52.954;5.932;2023-04-27T02:37:48;1.70;99.90
53653;DHT22;39553;52.954;5.932;2023-04-27T02:40:13;1.40;99.90
53653;DHT22;39553;52.954;5.932;2023-04-27T02:42:39;1.50;99.90
53653;DHT22;39553;52.954;5.932;2023-04-27T02:45:06;1.50;99.90
53653;DHT22;39553;52.954;5.932;2023-04-27T02:47:32;1.50;99.90
53653;DHT22;39553;52.954;5.932;2023-04-27T02:49:59;1.50;99.90
53653;DHT22;39553;52.954;5.932;2023-04-27T02:52:25;1.60;99.90
53653;DHT22;39553;52.954;5.932;2023-04-27T02:54:50;1.60;99.90
53653;DHT22;39553;52.954;5.932;2023-04-27T02:57:16;1.70;99.90
53653;DHT22;39553;52.954;5.932;2023-04-27T02:59:42;1.70;99.90
53653;DHT22;39553;52.954;5.932;2023-04-27T03:02:08;1.70;99.90
53653;DHT22;39553;52.954;5.932;2023-04-27T03:04:34;1.90;99.90
53653;DHT22;39553;52.954;5.932;2023-04-27T03:07:02;1.70;99.90
53653;DHT22;39553;52.954;5.932;2023-04-27T03:09:28;1.70;99.90
53653;DHT22;39553;52.954;5.932;2023-04-27T03:11:53;1.70;99.90
53653;DHT22;39553;52.954;5.932;2023-04-27T03:14:19;1.80;99.90
53653;DHT22;39553;52.954;5.932;2023-04-27T03:16:45;1.60;99.90
53653;DHT22;39553;52.954;5.932;2023-04-27T03:19:11;1.60;99.90
53653;DHT22;39553;52.954;5.932;2023-04-27T03:21:36;2.20;99.90
53653;DHT22;39553;52.954;5.932;2023-04-27T03:24:02;1.50;99.90
53653;DHT22;39553;52.954;5.932;2023-04-27T03:26:28;1.40;99.90
53653;DHT22;39553;52.954;5.932;2023-04-27T03:28:54;1.50;99.90
53653;DHT22;39553;52.954;5.932;2023-04-27T03:31:20;1.40;99.90
53653;DHT22;39553;52.954;5.932;2023-04-27T03:33:46;1.30;99.90
53653;DHT22;39553;52.954;5.932;2023-04-27T03:36:11;1.30;99.90
53653;DHT22;39553;52.954;5.932;2023-04-27T03:38:37;1.30;99.90
53653;DHT22;39553;52.954;5.932;2023-04-27T03:41:03;1.50;99.90
53653;DHT22;39553;52.954;5.932;2023-04-27T03:43:29;1.30;99.90
53653;DHT22;39553;52.954;5.932;2023-04-27T03:45:55;1.30;99.90
53653;DHT22;39553;52.954;5.932;2023-04-27T03:48:21;1.40;99.90
53653;DHT22;39553;52.954;5.932;2023-04-27T03:50:47;1.30;99.90
53653;DHT22;39553;52.954;5.932;2023-04-27T03:53:14;1.40;99.90
53653;DHT22;39553;52.954;5.932;2023-04-27T03:55:41;2.00;99.90
53653;DHT22;39553;52.954;5.932;2023-04-27T03:58:07;1.40;99.90
53653;DHT22;39553;52.954;5.932;2023-04-27T04:00:35;1.40;99.90
53653;DHT22;39553;52.954;5.932;2023-04-27T04:03:02;1.30;99.90
53653;DHT22;39553;52.954;5.932;2023-04-27T04:05:28;1.20;99.90
53653;DHT22;39553;52.954;5.932;2023-04-27T04:07:55;1.30;99.90
53653;DHT22;39553;52.954;5.932;2023-04-27T04:10:22;1.10;99.90
53653;DHT22;39553;52.954;5.932;2023-04-27T04:12:47;1.10;99.90
53653;DHT22;39553;52.954;5.932;2023-04-27T04:15:13;1.10;99.90
53653;DHT22;39553;52.954;5.932;2023-04-27T04:17:39;1.00;99.90
53653;DHT22;39553;52.954;5.932;2023-04-27T04:20:05;1.00;99.90
53653;DHT22;39553;52.954;5.932;2023-04-27T04:22:38;1.00;99.90
53653;DHT22;39553;52.954;5.932;2023-04-27T04:25:04;1.00;99.90
53653;DHT22;39553;52.954;5.932;2023-04-27T04:27:33;1.00;99.90
53653;DHT22;39553;52.954;5.932;2023-04-27T04:29:59;1.00;99.90
53653;DHT22;39553;52.954;5.932;2023-04-27T04:32:26;1.00;99.90
53653;DHT22;39553;52.954;5.932;2023-04-27T04:34:56;1.00;99.90
53653;DHT22;39553;52.954;5.932;2023-04-27T04:37:22;0.90;99.90
53653;DHT22;39553;52.954;5.932;2023-04-27T04:39:48;1.00;99.90
53653;DHT22;39553;52.954;5.932;2023-04-27T04:42:14;1.00;99.90
53653;DHT22;39553;52.954;5.932;2023-04-27T04:44:40;1.00;99.90
53653;DHT22;39553;52.954;5.932;2023-04-27T04:47:06;1.20;99.90
53653;DHT22;39553;52.954;5.932;2023-04-27T04:49:34;1.30;99.90
53653;DHT22;39553;52.954;5.932;2023-04-27T04:52:00;1.10;99.90
53653;DHT22;39553;52.954;5.932;2023-04-27T04:54:26;1.10;99.90
53653;DHT22;39553;52.954;5.932;2023-04-27T04:56:52;1.20;99.90
53653;DHT22;39553;52.954;5.932;2023-04-27T04:59:17;1.20;99.90
53653;DHT22;39553;52.954;5.932;2023-04-27T05:01:43;1.30;99.90
53653;DHT22;39553;52.954;5.932;2023-04-27T05:04:09;1.40;99.90
53653;DHT22;39553;52.954;5.932;2023-04-27T05:06:36;1.50;99.90
53653;DHT22;39553;52.954;5.932;2023-04-27T05:09:02;1.50;99.90
53653;DHT22;39553;52.954;5.932;2023-04-27T05:11:31;1.60;99.90
53653;DHT22;39553;52.954;5.932;2023-04-27T05:14:02;1.70;99.90
53653;DHT22;39553;52.954;5.932;2023-04-27T05:16:29;1.90;99.90
53653;DHT22;39553;52.954;5.932;2023-04-27T05:18:56;2.00;99.90
53653;DHT22;39553;52.954;5.932;2023-04-27T05:21:22;2.10;99.90
53653;DHT22;39553;52.954;5.932;2023-04-27T05:23:48;2.30;99.90
53653;DHT22;39553;52.954;5.932;2023-04-27T05:26:18;2.40;99.90
53653;DHT22;39553;52.954;5.932;2023-04-27T05:28:46;2.60;99.90
53653;DHT22;39553;52.954;5.932;2023-04-27T05:31:15;2.80;99.90
53653;DHT22;39553;52.954;5.932;2023-04-27T05:33:41;3.20;99.90
53653;DHT22;39553;52.954;5.932;2023-04-27T05:36:07;3.60;99.90
53653;DHT22;39553;52.954;5.932;2023-04-27T05:38:32;4.10;99.90
53653;DHT22;39553;52.954;5.932;2023-04-27T05:41:00;4.60;99.90
53653;DHT22;39553;52.954;5.932;2023-04-27T05:43:26;5.10;99.90
53653;DHT22;39553;52.954;5.932;2023-04-27T05:45:52;5.40;99.90
53653;DHT22;39553;52.954;5.932;2023-04-27T05:48:19;5.70;99.90
53653;DHT22;39553;52.954;5.932;2023-04-27T05:50:47;6.00;99.90
53653;DHT22;39553;52.954;5.932;2023-04-27T05:53:13;6.30;99.90
53653;DHT22;39553;52.954;5.932;2023-04-27T05:55:39;6.50;99.90
53653;DHT22;39553;52.954;5.932;2023-04-27T05:58:05;6.70;99.90
53653;DHT22;39553;52.954;5.932;2023-04-27T06:00:31;6.90;99.90
53653;DHT22;39553;52.954;5.932;2023-04-27T06:02:57;7.10;99.90
53653;DHT22;39553;52.954;5.932;2023-04-27T06:05:22;7.20;99.90
53653;DHT22;39553;52.954;5.932;2023-04-27T06:07:48;7.40;99.90
53653;DHT22;39553;52.954;5.932;2023-04-27T06:10:14;7.50;99.90
53653;DHT22;39553;52.954;5.932;2023-04-27T06:12:41;7.70;99.90
53653;DHT22;39553;52.954;5.932;2023-04-27T06:15:07;7.90;99.90
53653;DHT22;39553;52.954;5.932;2023-04-27T06:17:34;8.20;99.90
53653;DHT22;39553;52.954;5.932;2023-04-27T06:20:00;8.40;99.90
53653;DHT22;39553;52.954;5.932;2023-04-27T06:22:26;8.50;99.90
53653;DHT22;39553;52.954;5.932;2023-04-27T06:24:55;8.60;99.90
53653;DHT22;39553;52.954;5.932;2023-04-27T06:27:21;8.60;99.90
53653;DHT22;39553;52.954;5.932;2023-04-27T06:29:47;8.30;99.20
53653;DHT22;39553;52.954;5.932;2023-04-27T06:32:15;7.90;99.40
53653;DHT22;39553;52.954;5.932;2023-04-27T06:34:41;7.50;99.90
53653;DHT22;39553;52.954;5.932;2023-04-27T06:37:07;7.20;99.90
53653;DHT22;39553;52.954;5.932;2023-04-27T06:39:36;7.00;99.90
53653;DHT22;39553;52.954;5.932;2023-04-27T06:42:02;6.90;99.90
53653;DHT22;39553;52.954;5.932;2023-04-27T06:44:30;7.00;99.90
53653;DHT22;39553;52.954;5.932;2023-04-27T06:46:56;7.40;99.90
53653;DHT22;39553;52.954;5.932;2023-04-27T06:49:21;8.10;99.90
53653;DHT22;39553;52.954;5.932;2023-04-27T06:51:48;8.80;98.70
53653;DHT22;39553;52.954;5.932;2023-04-27T06:54:14;9.30;95.30
53653;DHT22;39553;52.954;5.932;2023-04-27T06:56:39;9.50;94.20
53653;DHT22;39553;52.954;5.932;2023-04-27T06:59:07;9.80;94.30
53653;DHT22;39553;52.954;5.932;2023-04-27T07:01:33;10.10;93.50
53653;DHT22;39553;52.954;5.932;2023-04-27T07:03:59;10.20;92.20
53653;DHT22;39553;52.954;5.932;2023-04-27T07:06:25;10.40;93.20
53653;DHT22;39553;52.954;5.932;2023-04-27T07:08:51;10.70;92.90
53653;DHT22;39553;52.954;5.932;2023-04-27T07:11:17;11.00;92.60
53653;DHT22;39553;52.954;5.932;2023-04-27T07:13:42;11.30;92.10
53653;DHT22;39553;52.954;5.932;2023-04-27T07:16:08;11.60;92.00
53653;DHT22;39553;52.954;5.932;2023-04-27T07:18:34;11.80;91.40
53653;DHT22;39553;52.954;5.932;2023-04-27T07:21:00;12.00;91.00
53653;DHT22;39553;52.954;5.932;2023-04-27T07:23:26;12.10;90.70
53653;DHT22;39553;52.954;5.932;2023-04-27T07:25:51;12.20;88.60
53653;DHT22;39553;52.954;5.932;2023-04-27T07:28:18;12.40;89.00
53653;DHT22;39553;52.954;5.932;2023-04-27T07:30:44;12.40;87.50
53653;DHT22;39553;52.954;5.932;2023-04-27T07:33:10;12.40;84.80
53653;DHT22;39553;52.954;5.932;2023-04-27T07:35:36;12.40;83.40
53653;DHT22;39553;52.954;5.932;2023-04-27T07:38:03;12.20;73.10
53653;DHT22;39553;52.954;5.932;2023-04-27T07:40:29;11.80;80.30
53653;DHT22;39553;52.954;5.932;2023-04-27T07:42:57;11.60;80.00
53653;DHT22;39553;52.954;5.932;2023-04-27T07:45:23;11.80;78.70
53653;DHT22;39553;52.954;5.932;2023-04-27T07:47:56;11.70;78.20
53653;DHT22;39553;52.954;5.932;2023-04-27T07:50:24;11.70;77.80
53653;DHT22;39553;52.954;5.932;2023-04-27T07:52:51;11.90;78.70
53653;DHT22;39553;52.954;5.932;2023-04-27T07:55:16;12.20;79.60
53653;DHT22;39553;52.954;5.932;2023-04-27T07:57:42;12.50;76.80
53653;DHT22;39553;52.954;5.932;2023-04-27T08:00:08;12.30;71.30
53653;DHT22;39553;52.954;5.932;2023-04-27T08:02:36;12.00;73.20
53653;DHT22;39553;52.954;5.932;2023-04-27T08:05:01;12.10;74.70
53653;DHT22;39553;52.954;5.932;2023-04-27T08:07:27;12.20;72.10
53653;DHT22;39553;52.954;5.932;2023-04-27T08:09:53;11.90;69.10
53653;DHT22;39553;52.954;5.932;2023-04-27T08:12:19;11.70;65.40
53653;DHT22;39553;52.954;5.932;2023-04-27T08:14:45;11.30;65.00
53653;DHT22;39553;52.954;5.932;2023-04-27T08:17:11;11.30;67.80
53653;DHT22;39553;52.954;5.932;2023-04-27T08:19:37;11.30;66.80
53653;DHT22;39553;52.954;5.932;2023-04-27T08:22:03;11.50;67.00
53653;DHT22;39553;52.954;5.932;2023-04-27T08:24:29;11.70;65.60
53653;DHT22;39553;52.954;5.932;2023-04-27T08:26:54;11.80;68.20
53653;DHT22;39553;52.954;5.932;2023-04-27T08:29:23;11.90;66.10
53653;DHT22;39553;52.954;5.932;2023-04-27T08:31:49;12.00;68.30
53653;DHT22;39553;52.954;5.932;2023-04-27T08:34:15;12.30;67.50
53653;DHT22;39553;52.954;5.932;2023-04-27T08:36:42;12.60;67.10
53653;DHT22;39553;52.954;5.932;2023-04-27T08:39:07;12.90;66.20
53653;DHT22;39553;52.954;5.932;2023-04-27T08:41:33;13.20;66.20
53653;DHT22;39553;52.954;5.932;2023-04-27T08:44:00;13.30;65.00
53653;DHT22;39553;52.954;5.932;2023-04-27T08:46:26;13.40;63.80
53653;DHT22;39553;52.954;5.932;2023-04-27T08:48:52;13.10;61.10
53653;DHT22;39553;52.954;5.932;2023-04-27T08:51:19;12.60;55.90
53653;DHT22;39553;52.954;5.932;2023-04-27T08:53:55;12.50;62.50
53653;DHT22;39553;52.954;5.932;2023-04-27T08:56:22;12.70;59.90
53653;DHT22;39553;52.954;5.932;2023-04-27T08:58:52;13.00;61.10
53653;DHT22;39553;52.954;5.932;2023-04-27T09:01:19;12.80;57.10
53653;DHT22;39553;52.954;5.932;2023-04-27T09:03:45;12.60;59.50
53653;DHT22;39553;52.954;5.932;2023-04-27T09:06:12;12.50;58.10
53653;DHT22;39553;52.954;5.932;2023-04-27T09:08:42;12.60;58.00
53653;DHT22;39553;52.954;5.932;2023-04-27T09:11:08;12.90;54.00
53653;DHT22;39553;52.954;5.932;2023-04-27T09:13:38;13.20;57.10
53653;DHT22;39553;52.954;5.932;2023-04-27T09:16:05;13.30;49.60
53653;DHT22;39553;52.954;5.932;2023-04-27T09:18:34;13.10;49.50
53653;DHT22;39553;52.954;5.932;2023-04-27T09:21:01;13.00;49.90
53653;DHT22;39553;52.954;5.932;2023-04-27T09:23:33;13.00;56.30
53653;DHT22;39553;52.954;5.932;2023-04-27T09:26:05;13.30;55.80
53653;DHT22;39553;52.954;5.932;2023-04-27T09:28:37;13.60;55.40
53653;DHT22;39553;52.954;5.932;2023-04-27T09:31:03;13.90;50.60
53653;DHT22;39553;52.954;5.932;2023-04-27T09:33:31;13.90;54.20
53653;DHT22;39553;52.954;5.932;2023-04-27T09:35:58;13.80;53.50
53653;DHT22;39553;52.954;5.932;2023-04-27T09:38:26;13.80;53.50
53653;DHT22;39553;52.954;5.932;2023-04-27T09:40:53;14.20;53.30
53653;DHT22;39553;52.954;5.932;2023-04-27T09:43:19;14.30;52.10
53653;DHT22;39553;52.954;5.932;2023-04-27T09:45:47;13.90;49.60
53653;DHT22;39553;52.954;5.932;2023-04-27T09:48:14;13.90;52.10
53653;DHT22;39553;52.954;5.932;2023-04-27T09:50:42;14.10;52.40
53653;DHT22;39553;52.954;5.932;2023-04-27T09:56:02;14.10;50.20
53653;DHT22;39553;52.954;5.932;2023-04-27T10:01:44;13.20;47.60
53653;DHT22;39553;52.954;5.932;2023-04-27T10:09:52;13.40;49.80
53653;DHT22;39553;52.954;5.932;2023-04-27T10:12:35;13.30;47.10
53653;DHT22;39553;52.954;5.932;2023-04-27T10:17:37;13.60;48.60
53653;DHT22;39553;52.954;5.932;2023-04-27T10:20:05;13.80;48.10
53653;DHT22;39553;52.954;5.932;2023-04-27T10:22:46;13.60;47.40
53653;DHT22;39553;52.954;5.932;2023-04-27T10:25:20;13.40;46.10
53653;DHT22;39553;52.954;5.932;2023-04-27T10:28:00;13.50;50.10
53653;DHT22;39553;52.954;5.932;2023-04-27T10:30:32;14.10;47.00
53653;DHT22;39553;52.954;5.932;2023-04-27T10:33:03;14.30;49.10
53653;DHT22;39553;52.954;5.932;2023-04-27T10:35:34;14.60;49.60
53653;DHT22;39553;52.954;5.932;2023-04-27T10:40:42;15.50;45.00
53653;DHT22;39553;52.954;5.932;2023-04-27T10:43:13;15.70;47.80
53653;DHT22;39553;52.954;5.932;2023-04-27T10:45:42;15.80;45.00
53653;DHT22;39553;52.954;5.932;2023-04-27T10:48:11;15.60;45.20
53653;DHT22;39553;52.954;5.932;2023-04-27T10:50:39;15.80;46.40
53653;DHT22;39553;52.954;5.932;2023-04-27T10:53:07;15.90;45.90
53653;DHT22;39553;52.954;5.932;2023-04-27T10:55:34;15.60;44.50
53653;DHT22;39553;52.954;5.932;2023-04-27T10:58:00;15.40;45.10
53653;DHT22;39553;52.954;5.932;2023-04-27T11:03:11;15.80;44.40
53653;DHT22;39553;52.954;5.932;2023-04-27T11:05:37;15.60;41.50
53653;DHT22;39553;52.954;5.932;2023-04-27T11:08:11;15.10;44.40
53653;DHT22;39553;52.954;5.932;2023-04-27T11:10:39;14.70;43.10
53653;DHT22;39553;52.954;5.932;2023-04-27T11:13:15;14.70;45.30
53653;DHT22;39553;52.954;5.932;2023-04-27T11:15:55;14.70;43.90
53653;DHT22;39553;52.954;5.932;2023-04-27T11:18:25;14.70;42.80
53653;DHT22;39553;52.954;5.932;2023-04-27T11:20:53;15.00;46.80
53653;DHT22;39553;52.954;5.932;2023-04-27T11:23:27;15.60;46.20
53653;DHT22;39553;52.954;5.932;2023-04-27T11:25:54;16.10;44.80
53653;DHT22;39553;52.954;5.932;2023-04-27T11:28:26;16.30;37.90
53653;DHT22;39553;52.954;5.932;2023-04-27T11:30:59;16.50;46.80
53653;DHT22;39553;52.954;5.932;2023-04-27T11:33:26;16.30;42.40
53653;DHT22;39553;52.954;5.932;2023-04-27T11:35:52;15.80;42.60
53653;DHT22;39553;52.954;5.932;2023-04-27T11:38:18;15.40;42.20
53653;DHT22;39553;52.954;5.932;2023-04-27T11:41:05;14.90;41.50
53653;DHT22;39553;52.954;5.932;2023-04-27T11:43:31;14.60;38.80
53653;DHT22;39553;52.954;5.932;2023-04-27T11:45:57;14.40;43.10
53653;DHT22;39553;52.954;5.932;2023-04-27T11:48:24;14.10;42.10
53653;DHT22;39553;52.954;5.932;2023-04-27T11:50:51;14.10;42.00
53653;DHT22;39553;52.954;5.932;2023-04-27T11:53:29;14.00;43.20
53653;DHT22;39553;52.954;5.932;2023-04-27T11:55:55;13.90;43.90
53653;DHT22;39553;52.954;5.932;2023-04-27T11:58:23;14.10;44.70
53653;DHT22;39553;52.954;5.932;2023-04-27T12:00:52;14.10;43.60
53653;DHT22;39553;52.954;5.932;2023-04-27T12:03:17;14.10;43.20
53653;DHT22;39553;52.954;5.932;2023-04-27T12:05:47;13.90;44.00
53653;DHT22;39553;52.954;5.932;2023-04-27T12:08:15;13.70;43.10
53653;DHT22;39553;52.954;5.932;2023-04-27T12:10:43;13.20;42.90
53653;DHT22;39553;52.954;5.932;2023-04-27T12:13:08;12.80;44.80
53653;DHT22;39553;52.954;5.932;2023-04-27T12:15:34;12.70;45.20
53653;DHT22;39553;52.954;5.932;2023-04-27T12:18:00;12.70;45.00
53653;DHT22;39553;52.954;5.932;2023-04-27T12:20:27;12.60;45.20
53653;DHT22;39553;52.954;5.932;2023-04-27T12:22:53;12.60;45.60
53653;DHT22;39553;52.954;5.932;2023-04-27T12:25:19;12.60;45.50
53653;DHT22;39553;52.954;5.932;2023-04-27T12:27:45;12.60;45.40
53653;DHT22;39553;52.954;5.932;2023-04-27T12:30:13;12.60;45.20
53653;DHT22;39553;52.954;5.932;2023-04-27T12:32:39;12.70;44.80
53653;DHT22;39553;52.954;5.932;2023-04-27T12:35:07;12.80;44.50
53653;DHT22;39553;52.954;5.932;2023-04-27T12:37:33;12.70;44.80
53653;DHT22;39553;52.954;5.932;2023-04-27T12:39:59;12.70;45.80
53653;DHT22;39553;52.954;5.932;2023-04-27T12:42:26;12.80;45.70
53653;DHT22;39553;52.954;5.932;2023-04-27T12:44:52;12.90;46.10
53653;DHT22;39553;52.954;5.932;2023-04-27T12:47:20;13.10;46.50
53653;DHT22;39553;52.954;5.932;2023-04-27T12:49:46;13.30;46.80
53653;DHT22;39553;52.954;5.932;2023-04-27T12:52:12;13.50;46.00
53653;DHT22;39553;52.954;5.932;2023-04-27T12:54:38;13.80;45.70
53653;DHT22;39553;52.954;5.932;2023-04-27T12:57:04;14.30;45.90
53653;DHT22;39553;52.954;5.932;2023-04-27T12:59:37;14.60;45.00
53653;DHT22;39553;52.954;5.932;2023-04-27T13:02:03;14.90;43.50
53653;DHT22;39553;52.954;5.932;2023-04-27T13:04:30;14.70;44.40
53653;DHT22;39553;52.954;5.932;2023-04-27T13:06:57;14.70;44.70
53653;DHT22;39553;52.954;5.932;2023-04-27T13:09:27;14.70;44.60
53653;DHT22;39553;52.954;5.932;2023-04-27T13:11:54;14.50;45.50
53653;DHT22;39553;52.954;5.932;2023-04-27T13:14:20;14.50;46.40
53653;DHT22;39553;52.954;5.932;2023-04-27T13:16:46;14.50;46.90
53653;DHT22;39553;52.954;5.932;2023-04-27T13:19:12;14.40;47.00
53653;DHT22;39553;52.954;5.932;2023-04-27T13:21:38;14.30;47.20
53653;DHT22;39553;52.954;5.932;2023-04-27T13:24:04;14.10;47.20
53653;DHT22;39553;52.954;5.932;2023-04-27T13:26:30;14.00;47.60
53653;DHT22;39553;52.954;5.932;2023-04-27T13:28:56;13.80;47.50
53653;DHT22;39553;52.954;5.932;2023-04-27T13:31:23;13.60;48.60
53653;DHT22;39553;52.954;5.932;2023-04-27T13:33:49;13.60;49.30
53653;DHT22;39553;52.954;5.932;2023-04-27T13:36:15;13.50;47.70
53653;DHT22;39553;52.954;5.932;2023-04-27T13:38:40;13.30;47.90
53653;DHT22;39553;52.954;5.932;2023-04-27T13:41:07;13.30;49.00
53653;DHT22;39553;52.954;5.932;2023-04-27T13:43:33;13.40;49.40
53653;DHT22;39553;52.954;5.932;2023-04-27T13:45:59;13.50;49.20
53653;DHT22;39553;52.954;5.932;2023-04-27T13:48:26;13.60;49.40
53653;DHT22;39553;52.954;5.932;2023-04-27T13:50:53;13.70;48.80
53653;DHT22;39553;52.954;5.932;2023-04-27T13:53:20;13.60;47.60
53653;DHT22;39553;52.954;5.932;2023-04-27T13:55:46;13.70;48.10
53653;DHT22;39553;52.954;5.932;2023-04-27T13:58:11;13.80;48.40
53653;DHT22;39553;52.954;5.932;2023-04-27T14:00:39;14.00;48.00
53653;DHT22;39553;52.954;5.932;2023-04-27T14:03:04;14.10;48.30
53653;DHT22;39553;52.954;5.932;2023-04-27T14:05:33;14.20;48.10
53653;DHT22;39553;52.954;5.932;2023-04-27T14:08:00;14.10;47.10
53653;DHT22;39553;52.954;5.932;2023-04-27T14:10:26;13.80;46.00
53653;DHT22;39553;52.954;5.932;2023-04-27T14:12:51;13.90;47.30
53653;DHT22;39553;52.954;5.932;2023-04-27T14:15:17;14.00;46.90
53653;DHT22;39553;52.954;5.932;2023-04-27T14:17:43;14.20;47.00
53653;DHT22;39553;52.954;5.932;2023-04-27T14:20:09;14.10;46.90
53653;DHT22;39553;52.954;5.932;2023-04-27T14:22:34;14.10;47.70
53653;DHT22;39553;52.954;5.932;2023-04-27T14:25:01;14.10;47.90
53653;DHT22;39553;52.954;5.932;2023-04-27T14:27:27;14.00;48.60
53653;DHT22;39553;52.954;5.932;2023-04-27T14:29:53;14.10;48.20
53653;DHT22;39553;52.954;5.932;2023-04-27T14:32:19;14.30;48.70
53653;DHT22;39553;52.954;5.932;2023-04-27T14:34:45;14.40;48.60
53653;DHT22;39553;52.954;5.932;2023-04-27T14:37:11;14.50;48.20
53653;DHT22;39553;52.954;5.932;2023-04-27T14:39:37;14.40;47.30
53653;DHT22;39553;52.954;5.932;2023-04-27T14:42:03;14.20;46.70
53653;DHT22;39553;52.954;5.932;2023-04-27T14:44:29;14.00;46.70
53653;DHT22;39553;52.954;5.932;2023-04-27T14:46:56;13.90;46.80
53653;DHT22;39553;52.954;5.932;2023-04-27T14:49:22;13.90;47.00
53653;DHT22;39553;52.954;5.932;2023-04-27T14:51:48;13.60;45.20
53653;DHT22;39553;52.954;5.932;2023-04-27T14:54:17;13.20;45.40
53653;DHT22;39553;52.954;5.932;2023-04-27T14:56:44;12.90;45.80
53653;DHT22;39553;52.954;5.932;2023-04-27T14:59:11;12.90;46.50
53653;DHT22;39553;52.954;5.932;2023-04-27T15:01:36;13.00;47.70
53653;DHT22;39553;52.954;5.932;2023-04-27T15:04:02;13.20;48.10
53653;DHT22;39553;52.954;5.932;2023-04-27T15:06:28;13.30;48.60
53653;DHT22;39553;52.954;5.932;2023-04-27T15:08:55;13.40;48.70
53653;DHT22;39553;52.954;5.932;2023-04-27T15:11:20;13.40;48.90
53653;DHT22;39553;52.954;5.932;2023-04-27T15:13:46;13.40;49.00
53653;DHT22;39553;52.954;5.932;2023-04-27T15:16:12;13.30;49.00
53653;DHT22;39553;52.954;5.932;2023-04-27T15:18:38;13.20;49.60
53653;DHT22;39553;52.954;5.932;2023-04-27T15:21:05;13.10;49.90
53653;DHT22;39553;52.954;5.932;2023-04-27T15:23:31;13.00;51.00
53653;DHT22;39553;52.954;5.932;2023-04-27T15:25:59;12.90;51.00
53653;DHT22;39553;52.954;5.932;2023-04-27T15:28:25;12.70;51.40
53653;DHT22;39553;52.954;5.932;2023-04-27T15:30:51;12.70;52.10
53653;DHT22;39553;52.954;5.932;2023-04-27T15:33:17;12.70;52.40
53653;DHT22;39553;52.954;5.932;2023-04-27T15:35:43;12.60;52.80
53653;DHT22;39553;52.954;5.932;2023-04-27T15:38:11;12.80;53.10
53653;DHT22;39553;52.954;5.932;2023-04-27T15:40:37;12.80;52.80
53653;DHT22;39553;52.954;5.932;2023-04-27T15:43:04;12.70;52.40
53653;DHT22;39553;52.954;5.932;2023-04-27T15:45:30;12.50;53.40
53653;DHT22;39553;52.954;5.932;2023-04-27T15:47:56;12.50;54.50
53653;DHT22;39553;52.954;5.932;2023-04-27T15:50:22;12.60;55.40
53653;DHT22;39553;52.954;5.932;2023-04-27T15:52:48;12.70;55.70
53653;DHT22;39553;52.954;5.932;2023-04-27T15:55:15;12.70;55.80